createdAt,value
2019-03-10T00:00:12.195Z,2.85
2019-03-10T00:02:46.205Z,2.80
2019-03-10T00:05:27.455Z,3.10
2019-03-10T00:08:03.225Z,3.05
2019-03-10T00:10:40.914Z,2.90
2019-03-10T00:13:18.973Z,3.10
2019-03-10T00:15:51.867Z,3.10
2019-03-10T00:18:28.576Z,3.05
2019-03-10T00:21:07.422Z,3.00
2019-03-10T00:23:43.498Z,2.40
2019-03-10T00:26:15.482Z,3.35
2019-03-10T00:28:55.223Z,2.85
2019-03-10T00:31:31.360Z,2.67
2019-03-10T00:34:07.313Z,3.05
2019-03-10T00:36:42.055Z,2.70
2019-03-10T00:39:21.868Z,2.80
2019-03-10T00:42:28.371Z,3.02
2019-03-10T00:45:13.214Z,2.95
2019-03-10T00:48:11.821Z,2.72
2019-03-10T00:51:09.789Z,3.00
2019-03-10T00:53:46.002Z,3.25
2019-03-10T00:56:21.370Z,2.90
2019-03-10T00:58:57.000Z,2.70
2019-03-10T01:01:36.075Z,2.70
2019-03-10T01:04:12.035Z,2.42
2019-03-10T01:06:44.826Z,3.10
2019-03-10T01:09:21.618Z,3.10
2019-03-10T01:11:56.737Z,3.45
2019-03-10T01:14:32.759Z,3.00
2019-03-10T01:17:19.065Z,3.45
2019-03-10T01:19:54.325Z,3.17
2019-03-10T01:22:22.325Z,3.70
2019-03-10T01:24:51.124Z,3.40
2019-03-10T01:27:19.976Z,3.30
2019-03-10T01:29:47.894Z,3.40
2019-03-10T01:32:23.662Z,2.95
2019-03-10T01:34:54.410Z,3.62
2019-03-10T01:37:22.380Z,3.10
2019-03-10T01:39:51.177Z,3.17
2019-03-10T01:42:19.813Z,3.50
2019-03-10T01:44:47.754Z,3.50
2019-03-10T01:47:16.070Z,2.90
2019-03-10T01:49:44.021Z,2.80
2019-03-10T01:52:12.284Z,2.90
2019-03-10T01:54:40.470Z,3.30
2019-03-10T01:57:11.377Z,2.50
2019-03-10T01:59:40.214Z,2.70
2019-03-10T02:02:08.149Z,2.80
2019-03-10T02:04:36.134Z,2.70
2019-03-10T02:07:04.071Z,2.60
2019-03-10T02:09:32.049Z,2.70
2019-03-10T02:12:00.350Z,2.35
2019-03-10T02:14:28.313Z,2.62
2019-03-10T02:16:56.224Z,2.80
2019-03-10T02:19:24.486Z,2.80
2019-03-10T02:21:52.453Z,2.70
2019-03-10T02:24:24.129Z,3.30
2019-03-10T02:26:50.954Z,2.70
2019-03-10T02:29:19.321Z,3.15
2019-03-10T02:31:47.314Z,2.72
2019-03-10T02:34:15.574Z,2.70
2019-03-10T02:36:43.554Z,2.80
2019-03-10T02:39:11.922Z,3.10
2019-03-10T02:41:40.018Z,3.00
2019-03-10T02:44:08.278Z,3.10
2019-03-10T02:46:36.662Z,3.20
2019-03-10T02:49:04.951Z,2.92
2019-03-10T02:51:33.202Z,3.20
2019-03-10T02:54:01.538Z,3.30
2019-03-10T02:56:29.788Z,3.15
2019-03-10T02:58:58.547Z,3.12
2019-03-10T03:01:26.575Z,3.30
2019-03-10T03:03:54.628Z,3.33
2019-03-10T03:06:23.071Z,3.00
2019-03-10T03:08:51.762Z,2.87
2019-03-10T03:11:20.043Z,3.00
2019-03-10T03:13:48.314Z,2.80
2019-03-10T03:16:16.270Z,3.10
2019-03-10T03:18:44.870Z,2.85
2019-03-10T03:21:13.847Z,3.12
2019-03-10T03:23:42.026Z,2.80
2019-03-10T03:26:10.022Z,3.50
2019-03-10T03:28:38.362Z,2.62
2019-03-10T03:31:06.337Z,3.00
2019-03-10T03:33:34.665Z,2.85
2019-03-10T03:36:04.427Z,3.60
2019-03-10T03:38:36.754Z,3.17
2019-03-10T03:41:06.306Z,3.12
2019-03-10T03:43:34.226Z,2.80
2019-03-10T03:46:02.216Z,3.10
2019-03-10T03:48:30.999Z,3.30
2019-03-10T03:50:58.960Z,3.30
2019-03-10T03:53:26.999Z,3.45
2019-03-10T03:55:54.929Z,3.00
2019-03-10T03:58:23.962Z,2.90
2019-03-10T04:00:57.459Z,3.37
2019-03-10T04:03:25.429Z,3.50
2019-03-10T04:05:53.660Z,3.40
2019-03-10T04:08:21.920Z,3.50
2019-03-10T04:10:49.851Z,3.70
2019-03-10T04:13:17.818Z,3.42
2019-03-10T04:15:46.161Z,3.50
2019-03-10T04:18:14.553Z,3.30
2019-03-10T04:20:42.848Z,4.10
2019-03-10T04:23:11.443Z,3.62
2019-03-10T04:25:39.708Z,3.20
2019-03-10T04:28:07.993Z,3.40
2019-03-10T04:30:36.280Z,3.50
2019-03-10T04:33:04.213Z,3.20
2019-03-10T04:35:32.172Z,3.30
2019-03-10T04:38:01.641Z,3.40
2019-03-10T04:40:30.191Z,3.83
2019-03-10T04:42:58.166Z,3.27
2019-03-10T04:45:26.133Z,2.90
2019-03-10T04:47:54.406Z,3.22
2019-03-10T04:50:22.381Z,2.80
2019-03-10T04:52:50.718Z,2.40
2019-03-10T04:55:27.456Z,2.60
2019-03-10T04:58:07.222Z,2.30
2019-03-10T05:00:36.768Z,2.87
2019-03-10T05:03:04.747Z,3.00
2019-03-10T05:05:33.034Z,2.60
2019-03-10T05:08:01.021Z,2.60
2019-03-10T05:10:28.957Z,2.85
2019-03-10T05:12:57.248Z,3.00
2019-03-10T05:15:25.838Z,2.47
2019-03-10T05:17:54.165Z,2.30
2019-03-10T05:20:22.121Z,2.60
2019-03-10T05:22:50.065Z,2.47
2019-03-10T05:25:18.462Z,2.60
2019-03-10T05:27:47.325Z,2.50
2019-03-10T05:30:15.590Z,2.40
2019-03-10T05:32:43.534Z,2.75
2019-03-10T05:35:12.477Z,2.70
2019-03-10T05:37:40.536Z,2.60
2019-03-10T05:40:08.910Z,2.50
2019-03-10T05:42:36.890Z,2.90
2019-03-10T05:45:05.488Z,2.33
2019-03-10T05:47:33.911Z,2.30
2019-03-10T05:50:02.300Z,2.40
2019-03-10T05:52:30.818Z,2.50
2019-03-10T05:54:59.082Z,2.42
2019-03-10T05:57:27.375Z,2.40
2019-03-10T05:59:56.070Z,2.92
2019-03-10T06:02:24.805Z,2.60
2019-03-10T06:04:52.957Z,2.47
2019-03-10T06:07:22.550Z,2.40
2019-03-10T06:09:51.071Z,2.50
2019-03-10T06:12:20.350Z,2.57
2019-03-10T06:14:48.572Z,2.60
2019-03-10T06:17:17.427Z,2.45
2019-03-10T06:19:46.939Z,2.50
2019-03-10T06:22:15.838Z,2.50
2019-03-10T06:24:44.303Z,2.50
2019-03-10T06:27:13.971Z,2.27
2019-03-10T06:29:42.749Z,2.30
2019-03-10T06:32:11.676Z,2.70
2019-03-10T06:34:39.877Z,2.62
2019-03-10T06:37:08.253Z,3.40
2019-03-10T06:39:36.637Z,2.58
2019-03-10T06:42:05.193Z,2.47
2019-03-10T06:44:34.067Z,2.50
2019-03-10T06:47:02.708Z,2.70
2019-03-10T06:49:31.644Z,2.85
2019-03-10T06:52:00.921Z,2.60
2019-03-10T06:54:29.365Z,2.77
2019-03-10T06:56:57.857Z,2.95
2019-03-10T06:59:26.238Z,2.80
2019-03-10T07:01:54.792Z,2.90
2019-03-10T07:04:23.428Z,3.20
2019-03-10T07:06:52.129Z,3.30
2019-03-10T07:09:21.467Z,3.30
2019-03-10T07:11:50.190Z,3.10
2019-03-10T07:14:18.105Z,3.60
2019-03-10T07:16:47.000Z,3.72
2019-03-10T07:19:15.314Z,4.00
2019-03-10T07:21:44.288Z,3.60
2019-03-10T07:24:13.068Z,4.23
2019-03-10T07:26:41.219Z,3.72
2019-03-10T07:29:34.952Z,3.60
2019-03-10T07:32:14.140Z,4.00
2019-03-10T07:35:00.551Z,4.05
2019-03-10T07:37:47.791Z,4.15
2019-03-10T07:40:50.074Z,4.10
2019-03-10T07:43:43.273Z,3.42
2019-03-10T07:46:33.345Z,4.20
2019-03-10T07:49:20.532Z,3.67
2019-03-10T07:52:00.751Z,3.73
2019-03-10T07:54:34.726Z,4.40
2019-03-10T07:57:22.637Z,4.00
2019-03-10T08:00:08.716Z,3.87
2019-03-10T08:02:43.632Z,4.10
2019-03-10T08:05:23.908Z,4.15
2019-03-10T08:08:13.871Z,3.90
2019-03-10T08:11:06.924Z,4.43
2019-03-10T08:13:54.642Z,3.42
2019-03-10T08:16:41.958Z,3.75
2019-03-10T08:19:29.818Z,3.97
2019-03-10T08:22:12.933Z,4.17
2019-03-10T08:25:04.231Z,3.85
2019-03-10T08:28:03.760Z,4.37
2019-03-10T08:31:00.282Z,4.83
2019-03-10T08:33:47.653Z,4.78
2019-03-10T08:36:41.731Z,4.33
2019-03-10T08:39:27.960Z,3.90
2019-03-10T08:42:20.556Z,4.30
2019-03-10T08:45:10.261Z,4.22
2019-03-10T08:48:03.536Z,4.50
2019-03-10T08:50:37.061Z,3.90
2019-03-10T08:53:42.993Z,4.10
2019-03-10T08:56:44.958Z,4.00
2019-03-10T08:59:29.153Z,5.15
2019-03-10T09:02:17.277Z,3.98
2019-03-10T09:05:05.429Z,4.15
2019-03-10T09:07:53.401Z,3.80
2019-03-10T09:10:50.848Z,3.60
2019-03-10T09:13:31.895Z,3.83
2019-03-10T09:16:17.042Z,5.08
2019-03-10T09:19:12.551Z,3.70
2019-03-10T09:22:00.315Z,3.20
2019-03-10T09:24:47.929Z,4.40
2019-03-10T09:27:41.740Z,3.30
2019-03-10T09:30:27.932Z,3.90
2019-03-10T09:33:14.502Z,3.00
2019-03-10T09:36:07.890Z,3.30
2019-03-10T09:38:42.544Z,3.47
2019-03-10T09:41:48.581Z,2.90
2019-03-10T09:44:54.767Z,3.10
2019-03-10T09:47:45.853Z,2.95
2019-03-10T09:50:25.908Z,2.92
2019-03-10T09:53:25.398Z,3.50
2019-03-10T09:56:11.651Z,3.45
2019-03-10T09:58:56.168Z,3.20
2019-03-10T10:01:35.242Z,4.30
2019-03-10T10:04:16.426Z,3.65
2019-03-10T10:06:51.988Z,3.47
2019-03-10T10:09:42.685Z,3.00
2019-03-10T10:12:23.748Z,3.20
2019-03-10T10:15:08.715Z,3.45
2019-03-10T10:18:05.851Z,3.15
2019-03-10T10:20:59.314Z,3.30
2019-03-10T10:23:47.805Z,3.10
2019-03-10T10:26:28.152Z,3.30
2019-03-10T10:29:15.673Z,3.25
2019-03-10T10:32:02.647Z,3.70
2019-03-10T10:34:48.752Z,3.40
2019-03-10T10:37:24.906Z,3.30
2019-03-10T10:40:10.681Z,3.45
2019-03-10T10:43:06.674Z,3.00
2019-03-10T10:45:55.770Z,3.00
2019-03-10T10:48:42.034Z,3.10
2019-03-10T10:51:18.790Z,3.00
2019-03-10T10:54:16.363Z,3.42
2019-03-10T10:56:57.750Z,3.00
2019-03-10T10:59:47.501Z,3.10
2019-03-10T11:02:34.748Z,3.45
2019-03-10T11:05:17.876Z,8.03
2019-03-10T11:08:01.358Z,3.40
2019-03-10T11:10:39.721Z,2.90
2019-03-10T11:13:25.867Z,2.90
2019-03-10T11:16:06.365Z,3.40
2019-03-10T11:18:50.236Z,2.83
2019-03-10T11:21:24.930Z,3.98
2019-03-10T11:24:17.810Z,3.13
2019-03-10T11:27:05.222Z,3.22
2019-03-10T11:29:58.936Z,2.87
2019-03-10T11:32:58.291Z,3.70
2019-03-10T11:35:35.158Z,3.25
2019-03-10T11:38:25.877Z,2.60
2019-03-10T11:41:11.506Z,2.90
2019-03-10T11:43:48.952Z,3.98
2019-03-10T11:46:55.298Z,3.50
2019-03-10T11:49:42.930Z,3.40
2019-03-10T11:52:27.080Z,2.90
2019-03-10T11:55:07.573Z,3.67
2019-03-10T11:57:54.973Z,3.30
2019-03-10T12:00:38.083Z,3.20
2019-03-10T12:03:28.203Z,2.80
2019-03-10T12:06:14.256Z,2.77
2019-03-10T12:08:51.249Z,3.25
2019-03-10T12:11:19.211Z,3.15
2019-03-10T12:13:47.562Z,2.95
2019-03-10T12:16:15.887Z,2.47
2019-03-10T12:18:44.707Z,2.40
2019-03-10T12:21:13.083Z,3.20
2019-03-10T12:23:41.938Z,3.40
2019-03-10T12:26:10.611Z,2.50
2019-03-10T12:28:41.543Z,3.12
2019-03-10T12:31:09.677Z,2.72
2019-03-10T12:33:38.690Z,2.60
2019-03-10T12:36:07.640Z,3.20
2019-03-10T12:38:36.269Z,3.15
2019-03-10T12:41:04.784Z,3.00
2019-03-10T12:43:33.261Z,2.93
2019-03-10T12:46:01.721Z,2.60
2019-03-10T12:48:30.129Z,2.62
2019-03-10T12:50:59.259Z,2.50
2019-03-10T12:53:27.224Z,2.50
2019-03-10T12:55:55.898Z,2.65
2019-03-10T12:58:24.253Z,2.77
2019-03-10T13:00:53.048Z,2.70
2019-03-10T13:03:20.982Z,2.80
2019-03-10T13:05:49.578Z,2.80
2019-03-10T13:08:18.360Z,2.50
2019-03-10T13:10:47.470Z,2.90
2019-03-10T13:13:15.461Z,2.62
2019-03-10T13:15:44.144Z,3.00
2019-03-10T13:18:12.626Z,3.80
2019-03-10T13:20:40.754Z,5.35
2019-03-10T13:23:09.276Z,3.33
2019-03-10T13:25:38.568Z,5.70
2019-03-10T13:28:07.400Z,4.17
2019-03-10T13:30:36.144Z,5.78
2019-03-10T13:33:05.071Z,4.42
2019-03-10T13:35:33.617Z,2.80
2019-03-10T13:38:02.457Z,2.40
2019-03-10T13:40:31.506Z,2.62
2019-03-10T13:42:59.404Z,2.40
2019-03-10T13:45:27.615Z,2.83
2019-03-10T13:47:56.352Z,2.50
2019-03-10T13:50:24.649Z,2.72
2019-03-10T13:52:53.795Z,2.70
2019-03-10T13:55:22.261Z,2.52
2019-03-10T13:57:50.945Z,2.90
2019-03-10T14:00:22.096Z,2.60
2019-03-10T14:02:50.474Z,15.23
2019-03-10T14:05:20.069Z,3.87
2019-03-10T14:07:48.886Z,4.00
2019-03-10T14:10:17.322Z,2.70
2019-03-10T14:12:45.285Z,5.20
2019-03-10T14:15:14.322Z,3.17
2019-03-10T14:17:42.472Z,2.60
2019-03-10T14:20:11.406Z,3.10
2019-03-10T14:22:40.263Z,3.00
2019-03-10T14:25:09.168Z,2.50
2019-03-10T14:27:38.184Z,2.70
2019-03-10T14:30:06.374Z,2.70
2019-03-10T14:32:34.499Z,2.98
2019-03-10T14:35:02.907Z,2.60
2019-03-10T14:37:31.870Z,2.52
2019-03-10T14:40:00.344Z,2.55
2019-03-10T14:42:28.432Z,2.80
2019-03-10T14:44:56.834Z,2.33
2019-03-10T14:47:25.141Z,2.70
2019-03-10T14:49:53.116Z,2.62
2019-03-10T14:52:27.997Z,4.67
2019-03-10T14:54:55.945Z,2.80
2019-03-10T14:57:24.232Z,7.87
2019-03-10T14:59:52.226Z,6.33
2019-03-10T15:02:20.201Z,5.70
2019-03-10T15:04:48.169Z,9.83
2019-03-10T15:07:16.415Z,10.23
2019-03-10T15:09:44.384Z,5.12
2019-03-10T15:12:12.677Z,2.10
2019-03-10T15:14:40.615Z,1.80
2019-03-10T15:17:08.937Z,1.80
2019-03-10T15:19:36.866Z,2.00
2019-03-10T15:22:05.170Z,1.90
2019-03-10T15:24:33.918Z,1.80
2019-03-10T15:27:02.313Z,3.30
2019-03-10T15:29:31.006Z,3.70
2019-03-10T15:31:58.968Z,3.50
2019-03-10T15:34:29.007Z,5.55
2019-03-10T15:36:56.965Z,5.00
2019-03-10T15:39:27.201Z,7.60
2019-03-10T15:41:54.890Z,7.10
2019-03-10T15:44:22.874Z,9.90
2019-03-10T15:46:51.507Z,4.42
2019-03-10T15:49:19.494Z,2.70
2019-03-10T15:51:47.449Z,2.60
2019-03-10T15:54:16.041Z,3.43
2019-03-10T15:56:44.727Z,4.22
2019-03-10T15:59:12.672Z,3.70
2019-03-10T16:01:40.942Z,2.45
2019-03-10T16:04:15.752Z,6.40
2019-03-10T16:06:44.046Z,4.10
2019-03-10T16:09:13.066Z,2.80
2019-03-10T16:11:41.338Z,2.35
2019-03-10T16:14:09.372Z,2.30
2019-03-10T16:16:37.696Z,2.30
2019-03-10T16:19:05.968Z,2.30
2019-03-10T16:21:33.959Z,2.80
2019-03-10T16:24:01.876Z,2.40
2019-03-10T16:26:29.877Z,2.80
2019-03-10T16:28:59.319Z,2.50
2019-03-10T16:31:27.969Z,2.77
2019-03-10T16:33:56.347Z,2.98
2019-03-10T16:36:24.617Z,2.90
2019-03-10T16:38:52.903Z,3.40
2019-03-10T16:41:21.474Z,3.27
2019-03-10T16:43:49.716Z,3.30
2019-03-10T16:46:18.001Z,3.70
2019-03-10T16:48:46.020Z,3.30
2019-03-10T16:51:14.589Z,3.27
2019-03-10T16:53:43.182Z,3.40
2019-03-10T16:56:11.452Z,3.45
2019-03-10T16:58:39.722Z,3.00
2019-03-10T17:01:07.680Z,2.47
2019-03-10T17:03:35.644Z,2.53
2019-03-10T17:06:03.967Z,2.30
2019-03-10T17:08:31.872Z,2.30
2019-03-10T17:11:00.102Z,2.20
2019-03-10T17:13:28.595Z,2.10
2019-03-10T17:15:56.556Z,2.33
2019-03-10T17:18:24.535Z,2.37
2019-03-10T17:20:52.785Z,5.80
2019-03-10T17:23:21.269Z,2.85
2019-03-10T17:25:49.228Z,2.30
2019-03-10T17:28:17.241Z,2.52
2019-03-10T17:30:45.229Z,2.40
2019-03-10T17:33:13.163Z,2.25
2019-03-10T17:35:41.870Z,2.37
2019-03-10T17:38:09.808Z,2.77
2019-03-10T17:40:38.086Z,2.50
2019-03-10T17:43:07.866Z,2.52
2019-03-10T17:45:35.638Z,2.60
2019-03-10T17:48:03.845Z,3.17
2019-03-10T17:50:31.925Z,10.38
2019-03-10T17:52:59.888Z,6.70
2019-03-10T17:55:27.845Z,8.45
2019-03-10T17:57:55.753Z,6.50
2019-03-10T18:00:25.324Z,6.50
2019-03-10T18:02:53.600Z,3.85
2019-03-10T18:05:22.183Z,2.87
2019-03-10T18:07:50.453Z,2.50
2019-03-10T18:10:18.531Z,2.52
2019-03-10T18:12:46.862Z,3.08
2019-03-10T18:15:15.813Z,3.00
2019-03-10T18:17:44.082Z,12.73
2019-03-10T18:20:12.873Z,3.95
2019-03-10T18:22:41.627Z,3.27
2019-03-10T18:25:09.943Z,2.90
2019-03-10T18:27:37.926Z,3.17
2019-03-10T18:30:06.928Z,3.10
2019-03-10T18:32:35.173Z,3.10
2019-03-10T18:35:03.159Z,3.10
2019-03-10T18:37:33.922Z,2.72
2019-03-10T18:40:01.045Z,3.27
2019-03-10T18:42:29.691Z,3.70
2019-03-10T18:44:58.306Z,5.03
2019-03-10T18:47:26.888Z,2.70
2019-03-10T18:49:55.534Z,3.02
2019-03-10T18:52:23.601Z,2.37
2019-03-10T18:54:51.949Z,4.10
2019-03-10T18:57:19.899Z,4.83
2019-03-10T18:59:47.845Z,2.70
2019-03-10T19:02:15.790Z,4.10
2019-03-10T19:04:43.730Z,3.22
2019-03-10T19:07:11.980Z,3.35
2019-03-10T19:09:40.557Z,4.30
2019-03-10T19:12:09.142Z,2.60
2019-03-10T19:14:37.098Z,3.05
2019-03-10T19:17:05.103Z,2.95
2019-03-10T19:19:33.413Z,2.45
2019-03-10T19:22:01.393Z,2.40
2019-03-10T19:24:30.222Z,2.15
2019-03-10T19:26:58.465Z,2.42
2019-03-10T19:29:26.751Z,2.20
2019-03-10T19:31:55.057Z,2.60
2019-03-10T19:34:22.971Z,2.52
2019-03-10T19:36:57.169Z,2.58
2019-03-10T19:39:21.181Z,2.60
2019-03-10T19:41:49.485Z,2.90
2019-03-10T19:44:18.033Z,2.58
2019-03-10T19:46:45.970Z,2.50
2019-03-10T19:49:14.633Z,3.83
2019-03-10T19:51:42.573Z,3.50
2019-03-10T19:54:11.181Z,2.85
2019-03-10T19:56:39.437Z,2.67
2019-03-10T19:59:07.705Z,2.42
2019-03-10T20:01:35.660Z,2.50
2019-03-10T20:04:03.876Z,2.52
2019-03-10T20:06:31.841Z,2.90
2019-03-10T20:09:01.435Z,2.90
2019-03-10T20:11:29.573Z,2.67
2019-03-10T20:13:57.896Z,3.40
2019-03-10T20:16:25.855Z,3.35
2019-03-10T20:18:53.833Z,3.27
2019-03-10T20:21:22.530Z,2.37
2019-03-10T20:23:51.589Z,2.10
2019-03-10T20:26:19.549Z,2.70
2019-03-10T20:28:47.774Z,2.37
2019-03-10T20:31:15.746Z,2.65
2019-03-10T20:33:44.347Z,2.80
2019-03-10T20:36:12.306Z,2.42
2019-03-10T20:38:40.317Z,3.00
2019-03-10T20:41:08.293Z,2.58
2019-03-10T20:43:36.249Z,2.50
2019-03-10T20:46:04.889Z,2.58
2019-03-10T20:48:33.718Z,2.50
2019-03-10T20:51:01.735Z,3.00
2019-03-10T20:53:30.777Z,2.62
2019-03-10T20:55:58.858Z,2.52
2019-03-10T20:58:27.485Z,2.15
2019-03-10T21:00:55.442Z,2.30
2019-03-10T21:03:23.676Z,1.77
2019-03-10T21:05:51.887Z,2.10
2019-03-10T21:08:19.869Z,2.70
2019-03-10T21:10:47.795Z,2.20
2019-03-10T21:13:16.031Z,2.00
2019-03-10T21:15:44.730Z,2.10
2019-03-10T21:18:12.694Z,2.47
2019-03-10T21:20:41.071Z,2.40
2019-03-10T21:23:09.302Z,2.17
2019-03-10T21:25:37.517Z,2.30
2019-03-10T21:28:06.317Z,1.80
2019-03-10T21:30:34.281Z,1.85
2019-03-10T21:33:02.303Z,2.02
2019-03-10T21:35:32.945Z,3.17
2019-03-10T21:37:59.795Z,2.67
2019-03-10T21:40:27.883Z,1.92
2019-03-10T21:42:55.854Z,2.25
2019-03-10T21:45:23.808Z,2.27
2019-03-10T21:47:51.792Z,2.62
2019-03-10T21:50:20.506Z,3.53
2019-03-10T21:52:48.768Z,4.08
2019-03-10T21:55:16.723Z,2.97
2019-03-10T21:57:44.717Z,2.40
2019-03-10T22:00:13.313Z,4.17
2019-03-10T22:02:41.285Z,2.50
2019-03-10T22:05:09.579Z,3.42
2019-03-10T22:07:37.580Z,2.58
2019-03-10T22:10:06.200Z,2.40
2019-03-10T22:12:34.485Z,2.15
2019-03-10T22:15:02.961Z,2.20
2019-03-10T22:17:30.950Z,2.45
2019-03-10T22:19:59.400Z,2.35
2019-03-10T22:22:28.109Z,1.80
2019-03-10T22:24:56.066Z,2.20
2019-03-10T22:27:24.653Z,1.80
2019-03-10T22:29:53.244Z,2.00
2019-03-10T22:32:21.521Z,2.25
2019-03-10T22:34:49.736Z,2.00
2019-03-10T22:37:18.074Z,2.20
2019-03-10T22:39:46.055Z,1.98
2019-03-10T22:42:14.045Z,1.98
2019-03-10T22:44:42.010Z,1.60
2019-03-10T22:47:10.659Z,2.00
2019-03-10T22:49:38.945Z,1.80
2019-03-10T22:52:06.903Z,2.17
2019-03-10T22:54:35.601Z,2.00
2019-03-10T22:57:04.285Z,1.70
2019-03-10T22:59:32.868Z,1.77
2019-03-10T23:02:00.813Z,1.70
2019-03-10T23:04:28.852Z,1.93
2019-03-10T23:06:57.192Z,2.22
2019-03-10T23:09:25.572Z,1.92
2019-03-10T23:11:53.840Z,2.40
2019-03-10T23:14:21.850Z,1.85
2019-03-10T23:16:52.271Z,2.00
2019-03-10T23:19:20.560Z,2.02
2019-03-10T23:21:48.793Z,2.27
2019-03-10T23:24:17.068Z,2.85
2019-03-10T23:26:45.094Z,3.17
2019-03-10T23:29:13.475Z,4.80
2019-03-10T23:31:42.033Z,6.17
2019-03-10T23:34:10.801Z,7.33
2019-03-10T23:36:39.068Z,8.60
2019-03-10T23:39:07.389Z,8.90
2019-03-10T23:41:35.605Z,9.65
2019-03-10T23:44:03.565Z,10.13
2019-03-10T23:46:32.629Z,11.43
2019-03-10T23:49:00.639Z,11.40
2019-03-10T23:51:28.950Z,11.30
2019-03-10T23:53:56.949Z,10.90
2019-03-10T23:56:25.526Z,10.80
2019-03-10T23:58:53.877Z,11.17
